sensor_id;sensor_type;location;lat;lon;timestamp;noise_LAeq;noise_LA_min;noise_LA_max;noise_LA01;noise_LA95
67900;Laerm;54700;51.796;10.956;2023-04-09T00:00:28;31.06;27.36;40.78;;
67900;Laerm;54700;51.796;10.956;2023-04-09T00:03:01;54.37;27.78;71.53;;
67900;Laerm;54700;51.796;10.956;2023-04-09T00:05:29;30.83;27.62;42.17;;
67900;Laerm;54700;51.796;10.956;2023-04-09T00:07:58;30.34;27.73;40.74;;
67900;Laerm;54700;51.796;10.956;2023-04-09T00:10:26;51.92;27.52;68.07;;
67900;Laerm;54700;51.796;10.956;2023-04-09T00:12:53;49.06;27.69;65.41;;
67900;Laerm;54700;51.796;10.956;2023-04-09T00:15:22;47.00;27.80;65.20;;
67900;Laerm;54700;51.796;10.956;2023-04-09T00:17:51;29.83;27.37;40.40;;
67900;Laerm;54700;51.796;10.956;2023-04-09T00:20:18;51.25;27.45;68.50;;
67900;Laerm;54700;51.796;10.956;2023-04-09T00:22:45;53.78;27.92;71.98;;
67900;Laerm;54700;51.796;10.956;2023-04-09T00:25:13;30.63;27.43;52.05;;
67900;Laerm;54700;51.796;10.956;2023-04-09T00:27:40;29.59;27.26;39.47;;
67900;Laerm;54700;51.796;10.956;2023-04-09T00:30:08;29.77;27.34;41.21;;
67900;Laerm;54700;51.796;10.956;2023-04-09T00:32:36;29.43;27.22;39.88;;
67900;Laerm;54700;51.796;10.956;2023-04-09T00:35:05;30.34;27.27;39.57;;
67900;Laerm;54700;51.796;10.956;2023-04-09T00:37:42;29.10;26.96;39.72;;
67900;Laerm;54700;51.796;10.956;2023-04-09T00:40:10;29.94;27.25;39.72;;
67900;Laerm;54700;51.796;10.956;2023-04-09T00:42:44;29.59;27.13;39.49;;
67900;Laerm;54700;51.796;10.956;2023-04-09T00:45:11;30.16;27.16;39.40;;
67900;Laerm;54700;51.796;10.956;2023-04-09T00:47:39;32.18;27.46;42.35;;
67900;Laerm;54700;51.796;10.956;2023-04-09T00:50:09;48.10;27.27;65.07;;
67900;Laerm;54700;51.796;10.956;2023-04-09T00:52:37;29.44;27.21;40.29;;
67900;Laerm;54700;51.796;10.956;2023-04-09T00:55:04;30.00;27.25;41.25;;
67900;Laerm;54700;51.796;10.956;2023-04-09T00:57:34;49.76;27.65;65.93;;
67900;Laerm;54700;51.796;10.956;2023-04-09T01:00:02;47.02;27.16;62.61;;
67900;Laerm;54700;51.796;10.956;2023-04-09T01:02:32;29.40;27.27;40.60;;
67900;Laerm;54700;51.796;10.956;2023-04-09T01:05:03;49.88;27.33;67.78;;
67900;Laerm;54700;51.796;10.956;2023-04-09T01:07:39;47.41;27.00;66.23;;
67900;Laerm;54700;51.796;10.956;2023-04-09T01:10:24;51.53;27.44;69.71;;
67900;Laerm;54700;51.796;10.956;2023-04-09T01:13:06;47.71;27.37;66.50;;
67900;Laerm;54700;51.796;10.956;2023-04-09T01:15:38;48.53;27.53;64.03;;
67900;Laerm;54700;51.796;10.956;2023-04-09T01:18:11;47.35;29.74;66.42;;
67900;Laerm;54700;51.796;10.956;2023-04-09T01:20:41;47.84;27.03;66.52;;
67900;Laerm;54700;51.796;10.956;2023-04-09T01:23:20;30.34;27.63;40.04;;
67900;Laerm;54700;51.796;10.956;2023-04-09T01:26:02;30.03;27.13;40.62;;
67900;Laerm;54700;51.796;10.956;2023-04-09T01:28:36;29.92;27.32;40.72;;
67900;Laerm;54700;51.796;10.956;2023-04-09T01:31:10;45.36;27.41;61.36;;
67900;Laerm;54700;51.796;10.956;2023-04-09T01:33:38;30.92;27.42;44.88;;
67900;Laerm;54700;51.796;10.956;2023-04-09T01:36:09;49.95;27.08;66.76;;
67900;Laerm;54700;51.796;10.956;2023-04-09T01:38:41;56.42;27.35;72.17;;
67900;Laerm;54700;51.796;10.956;2023-04-09T01:41:15;29.48;27.26;40.50;;
67900;Laerm;54700;51.796;10.956;2023-04-09T01:43:48;30.02;27.22;39.62;;
67900;Laerm;54700;51.796;10.956;2023-04-09T01:46:17;29.36;27.25;40.86;;
67900;Laerm;54700;51.796;10.956;2023-04-09T01:48:45;30.29;27.68;40.89;;
67900;Laerm;54700;51.796;10.956;2023-04-09T01:51:15;29.58;27.00;39.90;;
67900;Laerm;54700;51.796;10.956;2023-04-09T01:53:47;29.91;27.43;39.51;;
67900;Laerm;54700;51.796;10.956;2023-04-09T01:56:14;29.18;27.31;39.84;;
67900;Laerm;54700;51.796;10.956;2023-04-09T01:58:47;29.91;27.25;40.07;;
67900;Laerm;54700;51.796;10.956;2023-04-09T02:01:19;29.91;27.36;40.03;;
67900;Laerm;54700;51.796;10.956;2023-04-09T02:03:52;29.43;27.30;39.82;;
67900;Laerm;54700;51.796;10.956;2023-04-09T02:06:27;53.27;27.06;69.27;;
67900;Laerm;54700;51.796;10.956;2023-04-09T02:08:59;29.87;27.48;40.39;;
67900;Laerm;54700;51.796;10.956;2023-04-09T02:11:32;54.90;28.09;67.49;;
67900;Laerm;54700;51.796;10.956;2023-04-09T02:14:05;52.76;27.78;69.30;;
67900;Laerm;54700;51.796;10.956;2023-04-09T02:16:34;49.65;27.48;64.42;;
67900;Laerm;54700;51.796;10.956;2023-04-09T02:19:02;30.18;27.70;40.58;;
67900;Laerm;54700;51.796;10.956;2023-04-09T02:21:31;48.89;27.62;65.29;;
67900;Laerm;54700;51.796;10.956;2023-04-09T02:23:58;52.18;27.19;66.52;;
67900;Laerm;54700;51.796;10.956;2023-04-09T02:26:25;52.45;27.11;69.66;;
67900;Laerm;54700;51.796;10.956;2023-04-09T02:28:52;48.18;27.36;62.88;;
67900;Laerm;54700;51.796;10.956;2023-04-09T02:31:20;48.38;27.55;65.47;;
67900;Laerm;54700;51.796;10.956;2023-04-09T02:33:50;29.46;27.27;39.31;;
67900;Laerm;54700;51.796;10.956;2023-04-09T02:36:18;46.28;27.57;62.95;;
67900;Laerm;54700;51.796;10.956;2023-04-09T02:38:45;33.44;27.42;50.25;;
67900;Laerm;54700;51.796;10.956;2023-04-09T02:41:12;51.43;27.24;68.09;;
67900;Laerm;54700;51.796;10.956;2023-04-09T02:43:41;29.63;27.45;39.29;;
67900;Laerm;54700;51.796;10.956;2023-04-09T02:46:09;29.57;27.45;40.36;;
67900;Laerm;54700;51.796;10.956;2023-04-09T02:48:37;29.63;27.47;39.86;;
67900;Laerm;54700;51.796;10.956;2023-04-09T02:51:05;52.33;27.53;69.05;;
67900;Laerm;54700;51.796;10.956;2023-04-09T02:53:32;29.96;27.54;42.12;;
67900;Laerm;54700;51.796;10.956;2023-04-09T02:55:59;49.08;27.47;63.56;;
67900;Laerm;54700;51.796;10.956;2023-04-09T02:58:27;49.25;27.73;65.46;;
67900;Laerm;54700;51.796;10.956;2023-04-09T03:00:54;33.39;27.48;49.63;;
67900;Laerm;54700;51.796;10.956;2023-04-09T03:03:21;50.24;27.50;66.59;;
67900;Laerm;54700;51.796;10.956;2023-04-09T03:05:49;46.85;27.79;63.49;;
67900;Laerm;54700;51.796;10.956;2023-04-09T03:08:19;30.22;27.54;39.95;;
67900;Laerm;54700;51.796;10.956;2023-04-09T03:10:47;30.72;27.57;40.32;;
67900;Laerm;54700;51.796;10.956;2023-04-09T03:13:14;51.01;27.67;68.30;;
67900;Laerm;54700;51.796;10.956;2023-04-09T03:15:41;50.47;27.92;65.96;;
67900;Laerm;54700;51.796;10.956;2023-04-09T03:18:08;55.48;28.30;70.04;;
67900;Laerm;54700;51.796;10.956;2023-04-09T03:20:37;32.35;28.06;41.52;;
67900;Laerm;54700;51.796;10.956;2023-04-09T03:23:05;53.57;28.58;71.49;;
67900;Laerm;54700;51.796;10.956;2023-04-09T03:25:32;52.07;28.44;71.38;;
67900;Laerm;54700;51.796;10.956;2023-04-09T03:27:59;47.43;28.47;65.06;;
67900;Laerm;54700;51.796;10.956;2023-04-09T03:30:27;55.86;28.38;70.30;;
67900;Laerm;54700;51.796;10.956;2023-04-09T03:32:59;50.37;28.53;66.45;;
67900;Laerm;54700;51.796;10.956;2023-04-09T03:35:29;42.61;28.31;58.95;;
67900;Laerm;54700;51.796;10.956;2023-04-09T03:37:56;50.57;28.79;65.26;;
67900;Laerm;54700;51.796;10.956;2023-04-09T03:40:24;48.08;29.00;63.33;;
67900;Laerm;54700;51.796;10.956;2023-04-09T03:42:51;57.73;30.35;70.69;;
67900;Laerm;54700;51.796;10.956;2023-04-09T03:45:19;46.48;28.88;64.14;;
67900;Laerm;54700;51.796;10.956;2023-04-09T03:47:45;45.72;29.14;64.72;;
67900;Laerm;54700;51.796;10.956;2023-04-09T03:50:13;54.48;29.52;69.32;;
67900;Laerm;54700;51.796;10.956;2023-04-09T03:52:40;54.17;30.44;67.22;;
67900;Laerm;54700;51.796;10.956;2023-04-09T03:55:10;56.57;31.69;70.44;;
67900;Laerm;54700;51.796;10.956;2023-04-09T03:57:38;52.82;31.97;66.63;;
67900;Laerm;54700;51.796;10.956;2023-04-09T04:00:06;57.69;33.71;69.87;;
67900;Laerm;54700;51.796;10.956;2023-04-09T04:02:34;52.70;32.80;66.30;;
67900;Laerm;54700;51.796;10.956;2023-04-09T04:05:09;49.05;32.72;64.88;;
67900;Laerm;54700;51.796;10.956;2023-04-09T04:07:38;54.70;34.83;68.91;;
67900;Laerm;54700;51.796;10.956;2023-04-09T04:10:09;54.36;32.29;68.55;;
67900;Laerm;54700;51.796;10.956;2023-04-09T04:12:36;55.63;34.02;69.96;;
67900;Laerm;54700;51.796;10.956;2023-04-09T04:15:05;56.41;33.04;71.55;;
67900;Laerm;54700;51.796;10.956;2023-04-09T04:17:38;56.62;32.46;70.76;;
67900;Laerm;54700;51.796;10.956;2023-04-09T04:20:06;46.56;31.12;58.49;;
67900;Laerm;54700;51.796;10.956;2023-04-09T04:22:33;54.62;30.08;67.23;;
67900;Laerm;54700;51.796;10.956;2023-04-09T04:25:00;55.04;29.05;68.16;;
67900;Laerm;54700;51.796;10.956;2023-04-09T04:27:27;56.47;29.41;69.69;;
67900;Laerm;54700;51.796;10.956;2023-04-09T04:29:56;46.62;29.78;62.41;;
67900;Laerm;54700;51.796;10.956;2023-04-09T04:32:26;55.12;30.44;68.70;;
67900;Laerm;54700;51.796;10.956;2023-04-09T04:34:53;46.03;28.77;65.12;;
67900;Laerm;54700;51.796;10.956;2023-04-09T04:37:20;57.61;30.89;71.45;;
67900;Laerm;54700;51.796;10.956;2023-04-09T04:39:47;44.89;28.80;66.60;;
67900;Laerm;54700;51.796;10.956;2023-04-09T04:42:14;43.68;28.42;55.21;;
67900;Laerm;54700;51.796;10.956;2023-04-09T04:44:42;39.11;28.88;58.43;;
67900;Laerm;54700;51.796;10.956;2023-04-09T04:47:09;45.03;29.16;64.97;;
67900;Laerm;54700;51.796;10.956;2023-04-09T04:49:37;44.00;29.19;60.17;;
67900;Laerm;54700;51.796;10.956;2023-04-09T04:52:05;56.84;29.22;69.55;;
67900;Laerm;54700;51.796;10.956;2023-04-09T04:54:33;49.23;30.16;67.66;;
67900;Laerm;54700;51.796;10.956;2023-04-09T04:57:02;45.81;29.07;65.81;;
67900;Laerm;54700;51.796;10.956;2023-04-09T04:59:29;50.89;29.77;65.83;;
67900;Laerm;54700;51.796;10.956;2023-04-09T05:01:57;41.95;30.32;54.41;;
67900;Laerm;54700;51.796;10.956;2023-04-09T05:04:27;50.99;29.62;68.11;;
67900;Laerm;54700;51.796;10.956;2023-04-09T05:06:59;42.54;28.94;62.16;;
67900;Laerm;54700;51.796;10.956;2023-04-09T05:09:29;47.25;29.08;63.23;;
67900;Laerm;54700;51.796;10.956;2023-04-09T05:11:59;40.23;28.83;53.28;;
67900;Laerm;54700;51.796;10.956;2023-04-09T05:14:26;38.74;28.38;51.31;;
67900;Laerm;54700;51.796;10.956;2023-04-09T05:16:54;37.71;28.41;60.77;;
67900;Laerm;54700;51.796;10.956;2023-04-09T05:19:27;55.99;29.33;68.06;;
67900;Laerm;54700;51.796;10.956;2023-04-09T05:22:07;48.07;28.51;61.58;;
67900;Laerm;54700;51.796;10.956;2023-04-09T05:24:44;56.51;28.59;70.83;;
67900;Laerm;54700;51.796;10.956;2023-04-09T05:27:13;54.86;29.08;69.92;;
67900;Laerm;54700;51.796;10.956;2023-04-09T05:29:40;53.60;29.13;68.93;;
67900;Laerm;54700;51.796;10.956;2023-04-09T05:32:10;39.13;29.56;55.50;;
67900;Laerm;54700;51.796;10.956;2023-04-09T05:34:37;53.65;29.51;68.40;;
67900;Laerm;54700;51.796;10.956;2023-04-09T05:37:05;36.59;28.36;52.12;;
67900;Laerm;54700;51.796;10.956;2023-04-09T05:39:32;55.90;28.44;72.19;;
67900;Laerm;54700;51.796;10.956;2023-04-09T05:41:59;56.83;28.88;69.78;;
67900;Laerm;54700;51.796;10.956;2023-04-09T05:44:32;47.60;27.94;62.96;;
67900;Laerm;54700;51.796;10.956;2023-04-09T05:47:00;49.23;28.21;65.46;;
67900;Laerm;54700;51.796;10.956;2023-04-09T05:49:27;52.95;27.76;65.72;;
67900;Laerm;54700;51.796;10.956;2023-04-09T05:51:54;55.83;32.87;71.32;;
67900;Laerm;54700;51.796;10.956;2023-04-09T05:54:22;39.51;28.72;57.42;;
67900;Laerm;54700;51.796;10.956;2023-04-09T05:56:51;55.95;28.50;70.68;;
67900;Laerm;54700;51.796;10.956;2023-04-09T05:59:18;52.51;29.24;68.71;;
67900;Laerm;54700;51.796;10.956;2023-04-09T06:01:45;56.61;29.54;69.04;;
67900;Laerm;54700;51.796;10.956;2023-04-09T06:04:15;54.44;29.31;67.81;;
67900;Laerm;54700;51.796;10.956;2023-04-09T06:06:43;48.44;29.52;64.13;;
67900;Laerm;54700;51.796;10.956;2023-04-09T06:09:10;49.00;28.78;65.86;;
67900;Laerm;54700;51.796;10.956;2023-04-09T06:11:44;53.23;28.99;67.49;;
67900;Laerm;54700;51.796;10.956;2023-04-09T06:14:14;55.23;28.46;67.86;;
67900;Laerm;54700;51.796;10.956;2023-04-09T06:16:45;59.01;29.87;73.23;;
67900;Laerm;54700;51.796;10.956;2023-04-09T06:19:14;53.89;29.75;68.24;;
67900;Laerm;54700;51.796;10.956;2023-04-09T06:21:45;54.70;29.49;71.01;;
67900;Laerm;54700;51.796;10.956;2023-04-09T06:24:12;59.56;31.10;72.66;;
67900;Laerm;54700;51.796;10.956;2023-04-09T06:26:46;51.73;29.08;68.90;;
67900;Laerm;54700;51.796;10.956;2023-04-09T06:29:14;58.93;29.15;72.76;;
67900;Laerm;54700;51.796;10.956;2023-04-09T06:31:42;56.61;30.63;72.77;;
67900;Laerm;54700;51.796;10.956;2023-04-09T06:34:09;57.13;31.08;68.97;;
67900;Laerm;54700;51.796;10.956;2023-04-09T06:36:42;52.52;31.93;68.70;;
67900;Laerm;54700;51.796;10.956;2023-04-09T06:39:09;57.19;30.93;68.12;;
67900;Laerm;54700;51.796;10.956;2023-04-09T06:41:39;54.19;29.86;68.44;;
67900;Laerm;54700;51.796;10.956;2023-04-09T06:44:11;56.49;29.68;69.93;;
67900;Laerm;54700;51.796;10.956;2023-04-09T06:46:46;56.27;30.30;68.95;;
67900;Laerm;54700;51.796;10.956;2023-04-09T06:49:21;53.53;30.41;70.04;;
67900;Laerm;54700;51.796;10.956;2023-04-09T06:51:55;55.92;31.86;67.09;;
67900;Laerm;54700;51.796;10.956;2023-04-09T06:54:23;56.55;33.47;70.29;;
67900;Laerm;54700;51.796;10.956;2023-04-09T06:56:50;48.46;30.69;63.57;;
67900;Laerm;54700;51.796;10.956;2023-04-09T06:59:22;57.64;29.75;71.18;;
67900;Laerm;54700;51.796;10.956;2023-04-09T07:01:56;56.25;29.72;69.58;;
67900;Laerm;54700;51.796;10.956;2023-04-09T07:04:29;54.31;30.10;69.30;;
67900;Laerm;54700;51.796;10.956;2023-04-09T07:07:05;60.11;30.58;71.96;;
67900;Laerm;54700;51.796;10.956;2023-04-09T07:09:32;58.23;29.98;70.37;;
67900;Laerm;54700;51.796;10.956;2023-04-09T07:12:01;57.93;29.72;70.00;;
67900;Laerm;54700;51.796;10.956;2023-04-09T07:14:38;56.44;33.83;70.16;;
67900;Laerm;54700;51.796;10.956;2023-04-09T07:17:07;53.90;30.50;70.88;;
67900;Laerm;54700;51.796;10.956;2023-04-09T07:19:36;58.51;33.35;69.08;;
67900;Laerm;54700;51.796;10.956;2023-04-09T07:22:05;53.50;31.08;70.17;;
67900;Laerm;54700;51.796;10.956;2023-04-09T07:27:33;56.82;31.79;70.27;;
67900;Laerm;54700;51.796;10.956;2023-04-09T07:30:05;57.51;31.35;69.84;;
67900;Laerm;54700;51.796;10.956;2023-04-09T07:32:41;60.23;33.79;73.37;;
67900;Laerm;54700;51.796;10.956;2023-04-09T07:35:09;56.77;32.13;69.27;;
67900;Laerm;54700;51.796;10.956;2023-04-09T07:37:38;56.59;30.37;69.18;;
67900;Laerm;54700;51.796;10.956;2023-04-09T07:40:10;57.40;30.17;71.48;;
67900;Laerm;54700;51.796;10.956;2023-04-09T07:42:42;61.18;42.65;75.44;;
67900;Laerm;54700;51.796;10.956;2023-04-09T07:45:12;60.71;32.22;74.07;;
67900;Laerm;54700;51.796;10.956;2023-04-09T07:47:40;58.14;31.65;68.72;;
67900;Laerm;54700;51.796;10.956;2023-04-09T07:50:08;56.29;32.61;68.47;;
67900;Laerm;54700;51.796;10.956;2023-04-09T07:52:37;57.50;31.87;68.61;;
67900;Laerm;54700;51.796;10.956;2023-04-09T07:55:10;60.19;33.05;70.39;;
67900;Laerm;54700;51.796;10.956;2023-04-09T07:57:50;57.86;32.60;68.69;;
67900;Laerm;54700;51.796;10.956;2023-04-09T08:00:32;59.11;31.83;70.12;;
67900;Laerm;54700;51.796;10.956;2023-04-09T08:03:04;60.76;33.75;70.96;;
67900;Laerm;54700;51.796;10.956;2023-04-09T08:05:47;56.97;32.95;69.36;;
67900;Laerm;54700;51.796;10.956;2023-04-09T08:08:15;59.18;35.13;70.06;;
67900;Laerm;54700;51.796;10.956;2023-04-09T08:10:47;58.49;34.62;69.64;;
67900;Laerm;54700;51.796;10.956;2023-04-09T08:13:22;57.08;33.88;70.62;;
67900;Laerm;54700;51.796;10.956;2023-04-09T08:15:54;61.07;35.61;70.75;;
67900;Laerm;54700;51.796;10.956;2023-04-09T08:18:28;59.84;31.79;72.92;;
67900;Laerm;54700;51.796;10.956;2023-04-09T08:21:10;60.15;31.21;71.20;;
67900;Laerm;54700;51.796;10.956;2023-04-09T08:23:48;56.51;31.43;69.41;;
67900;Laerm;54700;51.796;10.956;2023-04-09T08:26:25;62.25;37.29;73.00;;
67900;Laerm;54700;51.796;10.956;2023-04-09T08:28:55;61.51;34.77;72.57;;
67900;Laerm;54700;51.796;10.956;2023-04-09T08:31:34;58.45;33.10;71.52;;
67900;Laerm;54700;51.796;10.956;2023-04-09T08:34:02;61.14;34.74;73.09;;
67900;Laerm;54700;51.796;10.956;2023-04-09T08:36:29;62.36;35.50;77.45;;
67900;Laerm;54700;51.796;10.956;2023-04-09T08:38:57;57.50;32.73;69.16;;
67900;Laerm;54700;51.796;10.956;2023-04-09T08:41:26;61.40;35.81;69.54;;
67900;Laerm;54700;51.796;10.956;2023-04-09T08:43:54;59.63;32.01;72.04;;
67900;Laerm;54700;51.796;10.956;2023-04-09T08:46:24;57.97;33.95;68.69;;
67900;Laerm;54700;51.796;10.956;2023-04-09T08:48:53;61.54;34.08;73.19;;
67900;Laerm;54700;51.796;10.956;2023-04-09T08:51:21;58.51;33.38;68.89;;
67900;Laerm;54700;51.796;10.956;2023-04-09T08:54:00;59.99;32.83;71.61;;
67900;Laerm;54700;51.796;10.956;2023-04-09T08:56:28;60.48;37.59;70.95;;
67900;Laerm;54700;51.796;10.956;2023-04-09T08:58:55;60.91;36.15;68.92;;
67900;Laerm;54700;51.796;10.956;2023-04-09T09:01:23;61.89;34.53;72.44;;
67900;Laerm;54700;51.796;10.956;2023-04-09T09:03:55;62.52;33.57;75.13;;
67900;Laerm;54700;51.796;10.956;2023-04-09T09:06:27;59.91;30.95;71.17;;
67900;Laerm;54700;51.796;10.956;2023-04-09T09:09:05;58.11;33.20;69.00;;
67900;Laerm;54700;51.796;10.956;2023-04-09T09:11:34;60.13;31.58;70.70;;
67900;Laerm;54700;51.796;10.956;2023-04-09T09:14:03;57.15;30.77;70.02;;
67900;Laerm;54700;51.796;10.956;2023-04-09T09:16:32;60.56;33.34;72.23;;
67900;Laerm;54700;51.796;10.956;2023-04-09T09:19:01;63.12;35.67;70.45;;
67900;Laerm;54700;51.796;10.956;2023-04-09T09:21:29;60.41;36.47;71.29;;
67900;Laerm;54700;51.796;10.956;2023-04-09T09:23:56;62.34;35.72;72.48;;
67900;Laerm;54700;51.796;10.956;2023-04-09T09:26:25;61.64;37.44;74.25;;
67900;Laerm;54700;51.796;10.956;2023-04-09T09:28:53;58.61;34.87;69.57;;
67900;Laerm;54700;51.796;10.956;2023-04-09T09:31:24;60.59;32.12;70.61;;
67900;Laerm;54700;51.796;10.956;2023-04-09T09:33:52;62.28;35.72;72.19;;
67900;Laerm;54700;51.796;10.956;2023-04-09T09:36:34;62.32;47.51;70.82;;
67900;Laerm;54700;51.796;10.956;2023-04-09T09:39:02;59.27;32.96;70.74;;
67900;Laerm;54700;51.796;10.956;2023-04-09T09:41:34;59.31;33.53;72.03;;
67900;Laerm;54700;51.796;10.956;2023-04-09T09:44:01;62.89;33.73;73.60;;
67900;Laerm;54700;51.796;10.956;2023-04-09T09:46:34;61.99;39.18;70.23;;
67900;Laerm;54700;51.796;10.956;2023-04-09T09:49:03;61.34;34.09;72.21;;
67900;Laerm;54700;51.796;10.956;2023-04-09T09:51:34;61.87;34.54;70.78;;
67900;Laerm;54700;51.796;10.956;2023-04-09T09:54:03;62.51;39.90;69.76;;
67900;Laerm;54700;51.796;10.956;2023-04-09T09:56:37;60.60;34.69;69.19;;
67900;Laerm;54700;51.796;10.956;2023-04-09T09:59:15;60.85;36.77;69.56;;
67900;Laerm;54700;51.796;10.956;2023-04-09T10:01:44;62.58;38.67;74.01;;
67900;Laerm;54700;51.796;10.956;2023-04-09T10:04:14;59.30;32.87;71.08;;
67900;Laerm;54700;51.796;10.956;2023-04-09T10:06:44;60.91;32.21;72.18;;
67900;Laerm;54700;51.796;10.956;2023-04-09T10:09:11;58.03;31.80;68.77;;
67900;Laerm;54700;51.796;10.956;2023-04-09T10:11:40;59.77;36.06;71.87;;
67900;Laerm;54700;51.796;10.956;2023-04-09T10:14:13;60.12;32.55;71.97;;
67900;Laerm;54700;51.796;10.956;2023-04-09T10:16:40;61.02;32.55;71.85;;
67900;Laerm;54700;51.796;10.956;2023-04-09T10:19:08;61.65;38.04;72.79;;
67900;Laerm;54700;51.796;10.956;2023-04-09T10:21:44;57.88;31.74;68.87;;
67900;Laerm;54700;51.796;10.956;2023-04-09T10:24:20;62.12;33.09;77.45;;
67900;Laerm;54700;51.796;10.956;2023-04-09T10:26:52;57.41;33.20;68.50;;
67900;Laerm;54700;51.796;10.956;2023-04-09T10:29:29;63.21;46.22;73.11;;
67900;Laerm;54700;51.796;10.956;2023-04-09T10:32:03;58.62;33.29;73.82;;
67900;Laerm;54700;51.796;10.956;2023-04-09T10:34:34;60.24;34.94;70.45;;
67900;Laerm;54700;51.796;10.956;2023-04-09T10:37:02;57.60;33.91;69.30;;
67900;Laerm;54700;51.796;10.956;2023-04-09T10:39:36;61.21;35.30;73.78;;
67900;Laerm;54700;51.796;10.956;2023-04-09T10:42:07;59.10;34.19;69.30;;
67900;Laerm;54700;51.796;10.956;2023-04-09T10:44:39;59.88;33.90;69.70;;
67900;Laerm;54700;51.796;10.956;2023-04-09T10:47:08;58.29;31.63;70.04;;
67900;Laerm;54700;51.796;10.956;2023-04-09T10:49:37;56.43;32.79;71.21;;
67900;Laerm;54700;51.796;10.956;2023-04-09T10:52:08;59.52;33.63;69.98;;
67900;Laerm;54700;51.796;10.956;2023-04-09T10:54:42;58.68;31.51;68.53;;
67900;Laerm;54700;51.796;10.956;2023-04-09T10:57:15;60.56;36.02;69.21;;
67900;Laerm;54700;51.796;10.956;2023-04-09T10:59:47;60.68;32.46;71.96;;
67900;Laerm;54700;51.796;10.956;2023-04-09T11:05:25;57.55;31.95;68.68;;
67900;Laerm;54700;51.796;10.956;2023-04-09T11:08:03;59.66;35.80;70.08;;
67900;Laerm;54700;51.796;10.956;2023-04-09T11:10:32;59.00;32.66;69.17;;
67900;Laerm;54700;51.796;10.956;2023-04-09T11:13:02;62.26;37.86;75.48;;
67900;Laerm;54700;51.796;10.956;2023-04-09T11:15:30;56.90;34.04;69.34;;
67900;Laerm;54700;51.796;10.956;2023-04-09T11:18:02;58.54;32.71;69.92;;
67900;Laerm;54700;51.796;10.956;2023-04-09T11:20:37;60.25;33.61;74.98;;
67900;Laerm;54700;51.796;10.956;2023-04-09T11:23:10;62.40;32.28;79.48;;
67900;Laerm;54700;51.796;10.956;2023-04-09T11:25:39;59.83;32.17;72.80;;
67900;Laerm;54700;51.796;10.956;2023-04-09T11:28:10;59.50;32.39;71.94;;
67900;Laerm;54700;51.796;10.956;2023-04-09T11:30:37;58.70;33.09;69.10;;
67900;Laerm;54700;51.796;10.956;2023-04-09T11:33:06;61.44;37.84;74.55;;
67900;Laerm;54700;51.796;10.956;2023-04-09T11:35:38;61.07;37.12;71.52;;
67900;Laerm;54700;51.796;10.956;2023-04-09T11:38:08;62.79;38.04;77.70;;
67900;Laerm;54700;51.796;10.956;2023-04-09T11:40:43;58.46;33.03;69.04;;
67900;Laerm;54700;51.796;10.956;2023-04-09T11:43:14;58.83;34.16;68.68;;
67900;Laerm;54700;51.796;10.956;2023-04-09T11:45:52;58.80;33.71;71.12;;
67900;Laerm;54700;51.796;10.956;2023-04-09T11:48:20;61.24;35.73;71.26;;
67900;Laerm;54700;51.796;10.956;2023-04-09T11:50:52;59.54;34.83;68.90;;
67900;Laerm;54700;51.796;10.956;2023-04-09T11:53:20;60.21;34.47;70.49;;
67900;Laerm;54700;51.796;10.956;2023-04-09T11:55:52;57.24;33.05;68.35;;
67900;Laerm;54700;51.796;10.956;2023-04-09T11:58:24;57.33;32.59;69.49;;
67900;Laerm;54700;51.796;10.956;2023-04-09T12:00:57;58.83;33.98;70.75;;
67900;Laerm;54700;51.796;10.956;2023-04-09T12:03:29;62.45;34.74;70.09;;
67900;Laerm;54700;51.796;10.956;2023-04-09T12:06:04;59.09;33.74;73.15;;
67900;Laerm;54700;51.796;10.956;2023-04-09T12:08:35;60.78;34.54;79.05;;
67900;Laerm;54700;51.796;10.956;2023-04-09T12:11:15;58.54;33.88;73.51;;
67900;Laerm;54700;51.796;10.956;2023-04-09T12:13:44;59.32;31.93;71.03;;
67900;Laerm;54700;51.796;10.956;2023-04-09T12:16:14;60.10;33.31;69.67;;
67900;Laerm;54700;51.796;10.956;2023-04-09T12:18:46;65.45;35.97;84.25;;
67900;Laerm;54700;51.796;10.956;2023-04-09T12:24:09;60.21;32.54;70.89;;
67900;Laerm;54700;51.796;10.956;2023-04-09T12:26:43;62.12;42.28;69.81;;
67900;Laerm;54700;51.796;10.956;2023-04-09T12:29:11;62.70;34.31;76.18;;
67900;Laerm;54700;51.796;10.956;2023-04-09T12:31:39;62.62;39.99;74.63;;
67900;Laerm;54700;51.796;10.956;2023-04-09T12:34:06;60.03;32.15;68.97;;
67900;Laerm;54700;51.796;10.956;2023-04-09T12:36:33;57.94;33.56;67.85;;
67900;Laerm;54700;51.796;10.956;2023-04-09T12:39:03;58.82;36.45;69.31;;
67900;Laerm;54700;51.796;10.956;2023-04-09T12:41:33;60.37;35.63;70.29;;
67900;Laerm;54700;51.796;10.956;2023-04-09T12:44:04;62.07;35.92;72.51;;
67900;Laerm;54700;51.796;10.956;2023-04-09T12:46:35;58.08;34.60;68.41;;
67900;Laerm;54700;51.796;10.956;2023-04-09T12:49:02;61.05;38.04;71.30;;
67900;Laerm;54700;51.796;10.956;2023-04-09T12:51:34;61.44;41.13;71.53;;
67900;Laerm;54700;51.796;10.956;2023-04-09T12:54:10;59.56;35.77;69.99;;
67900;Laerm;54700;51.796;10.956;2023-04-09T12:56:37;60.20;36.98;69.33;;
67900;Laerm;54700;51.796;10.956;2023-04-09T12:59:09;63.97;39.71;74.65;;
67900;Laerm;54700;51.796;10.956;2023-04-09T13:01:36;60.40;38.61;70.82;;
67900;Laerm;54700;51.796;10.956;2023-04-09T13:04:03;61.35;39.93;70.08;;
67900;Laerm;54700;51.796;10.956;2023-04-09T13:06:30;59.70;35.11;69.98;;
67900;Laerm;54700;51.796;10.956;2023-04-09T13:08:57;59.28;37.78;71.31;;
67900;Laerm;54700;51.796;10.956;2023-04-09T13:11:25;59.34;33.77;70.05;;
67900;Laerm;54700;51.796;10.956;2023-04-09T13:13:52;59.46;34.10;71.19;;
67900;Laerm;54700;51.796;10.956;2023-04-09T13:16:20;59.70;35.12;68.03;;
67900;Laerm;54700;51.796;10.956;2023-04-09T13:18:49;60.69;42.04;70.39;;
67900;Laerm;54700;51.796;10.956;2023-04-09T13:21:18;58.89;32.21;69.27;;
67900;Laerm;54700;51.796;10.956;2023-04-09T13:23:47;59.46;31.95;70.87;;
67900;Laerm;54700;51.796;10.956;2023-04-09T13:26:22;58.66;35.04;69.67;;
67900;Laerm;54700;51.796;10.956;2023-04-09T13:28:52;60.65;32.43;70.56;;
67900;Laerm;54700;51.796;10.956;2023-04-09T13:31:20;62.94;42.79;72.49;;
67900;Laerm;54700;51.796;10.956;2023-04-09T13:33:50;64.29;34.20;77.50;;
67900;Laerm;54700;51.796;10.956;2023-04-09T13:36:17;57.57;32.40;68.15;;
67900;Laerm;54700;51.796;10.956;2023-04-09T13:38:44;60.87;36.13;68.97;;
67900;Laerm;54700;51.796;10.956;2023-04-09T13:41:11;58.63;34.75;68.59;;
67900;Laerm;54700;51.796;10.956;2023-04-09T13:43:39;58.81;33.76;69.04;;
67900;Laerm;54700;51.796;10.956;2023-04-09T13:46:07;58.51;32.56;70.96;;
67900;Laerm;54700;51.796;10.956;2023-04-09T13:48:35;58.93;33.80;72.60;;
67900;Laerm;54700;51.796;10.956;2023-04-09T13:51:02;56.64;31.87;69.43;;
67900;Laerm;54700;51.796;10.956;2023-04-09T13:53:30;58.40;32.33;72.39;;
67900;Laerm;54700;51.796;10.956;2023-04-09T13:55:58;57.08;31.92;68.29;;